Bookmark and Share
Track history (hours):
 

Bg Felixstowe

Last reported at 2014-Apr-11 09:23 UTC. Time now 2014-Apr-16 07:43 UTC.
Position N 25°21' W 080°01'.

Length 139 m; draft 6.4 m.

Type: Ship. MMSI: 304906000.

NotesDate/timePositionNaut miles runAvg speedWind from/ knotsBaromVisibWave heightAir tempDewpointWater temp
2014-Apr-11 09:23N 25°21' W 080°01'1113.9
2014-Apr-11 08:33N 25°33' W 080°01'1313.5
2014-Apr-11 07:33N 25°46' W 080°05'5 4.7
2014-Apr-11 06:34N 25°46' W 080°10'0 0.0
2014-Apr-11 05:34N 25°46' W 080°10'0 0.0
2014-Apr-11 04:33N 25°46' W 080°10'0 0.0
2014-Apr-11 03:33N 25°46' W 080°10'0 0.0
2014-Apr-11 02:33N 25°46' W 080°10'0 0.0
2014-Apr-11 01:34N 25°46' W 080°10'0 0.0
2014-Apr-11 00:34N 25°46' W 080°10'0 0.0
2014-Apr-10 23:34N 25°46' W 080°10'0 0.0
2014-Apr-10 22:34N 25°46' W 080°10'0 0.0
2014-Apr-10 21:33N 25°46' W 080°10'0 0.0
2014-Apr-10 20:33N 25°46' W 080°10'1 0.9
2014-Apr-10 19:34N 25°46' W 080°09'9 9.4
2014-Apr-10 18:33N 25°39' W 080°02'  
2014-Apr-03 18:28N 25°23' W 079°60'1213.3
2014-Apr-03 17:33N 25°35' W 080°00'1212.2
2014-Apr-03 16:33N 25°46' W 080°04'5 5.0
2014-Apr-03 15:31N 25°46' W 080°10'0 0.0
2014-Apr-03 14:23N 25°46' W 080°10'0 0.0
2014-Apr-03 13:30N 25°46' W 080°10'0 0.0
2014-Apr-03 12:32N 25°46' W 080°10'0 0.0
2014-Apr-03 11:32N 25°46' W 080°10'0 0.0
2014-Apr-03 10:31N 25°46' W 080°10'0 0.0
2014-Apr-03 09:31N 25°46' W 080°10'0 0.0
2014-Apr-03 08:31N 25°46' W 080°10'0 0.0
2014-Apr-03 07:33N 25°46' W 080°10'0 0.0
2014-Apr-03 06:33N 25°46' W 080°10'0 0.0
2014-Apr-03 05:32N 25°46' W 080°10'0 0.0
2014-Apr-03 04:32N 25°46' W 080°10'0 0.0
2014-Apr-03 03:31N 25°46' W 080°10'0 0.0
2014-Apr-03 02:31N 25°46' W 080°10'0 0.0
2014-Apr-03 01:31N 25°46' W 080°10'4 3.9
2014-Apr-03 00:33N 25°46' W 080°06'1211.8
2014-Apr-02 23:34N 25°36' W 079°59'  

Dump ship's entire track history

sailing weather and tide predictions

Bg Felixstowe — V2BR7 — position and weather